createdAt,value
2019-01-20T00:00:36.338Z,19.05
2019-01-20T00:03:03.882Z,18.73
2019-01-20T00:05:31.446Z,17.25
2019-01-20T00:07:58.930Z,16.40
2019-01-20T00:10:26.854Z,16.20
2019-01-20T00:12:54.982Z,15.55
2019-01-20T00:15:22.749Z,17.27
2019-01-20T00:17:50.481Z,14.45
2019-01-20T00:20:18.444Z,17.42
2019-01-20T00:22:46.434Z,19.12
2019-01-20T00:25:13.964Z,19.00
2019-01-20T00:27:41.430Z,19.10
2019-01-20T00:30:09.440Z,17.00
2019-01-20T00:32:37.262Z,17.95
2019-01-20T00:35:05.091Z,17.77
2019-01-20T00:37:32.727Z,17.05
2019-01-20T00:40:00.850Z,20.57
2019-01-20T00:42:28.466Z,20.20
2019-01-20T00:45:02.621Z,20.48
2019-01-20T00:47:25.722Z,19.73
2019-01-20T00:49:53.718Z,22.73
2019-01-20T00:52:21.227Z,22.62
2019-01-20T00:54:48.734Z,21.87
2019-01-20T00:57:16.336Z,23.87
2019-01-20T00:59:44.235Z,21.57
2019-01-20T01:02:12.050Z,19.30
2019-01-20T01:04:39.826Z,17.70
2019-01-20T01:07:07.384Z,17.92
2019-01-20T01:09:34.918Z,16.90
2019-01-20T01:12:02.916Z,17.55
2019-01-20T01:14:30.823Z,18.32
2019-01-20T01:16:58.410Z,15.40
2019-01-20T01:19:26.018Z,17.85
2019-01-20T01:21:54.148Z,17.90
2019-01-20T01:24:21.595Z,17.82
2019-01-20T01:26:49.526Z,17.42
2019-01-20T01:29:17.326Z,17.98
2019-01-20T01:31:45.541Z,16.90
2019-01-20T01:34:13.802Z,17.98
2019-01-20T01:36:41.910Z,17.48
2019-01-20T01:39:09.974Z,17.70
2019-01-20T01:41:39.130Z,17.05
2019-01-20T01:44:07.258Z,18.15
2019-01-20T01:46:35.115Z,17.95
2019-01-20T01:49:02.603Z,17.17
2019-01-20T01:51:30.258Z,17.07
2019-01-20T01:53:57.833Z,16.07
2019-01-20T01:56:25.973Z,18.05
2019-01-20T01:58:53.766Z,17.65
2019-01-20T02:01:21.250Z,18.35
2019-01-20T02:03:48.710Z,18.17
2019-01-20T02:06:16.192Z,16.15
2019-01-20T02:08:43.671Z,19.60
2019-01-20T02:11:11.914Z,19.57
2019-01-20T02:13:39.394Z,21.27
2019-01-20T02:16:07.631Z,18.82
2019-01-20T02:18:35.101Z,20.05
2019-01-20T02:21:02.650Z,19.73
2019-01-20T02:23:30.403Z,19.25
2019-01-20T02:25:57.942Z,17.80
2019-01-20T02:28:25.995Z,18.57
2019-01-20T02:30:53.463Z,17.05
2019-01-20T02:33:20.936Z,16.40
2019-01-20T02:35:48.533Z,20.00
2019-01-20T02:38:15.986Z,20.82
2019-01-20T02:40:43.511Z,18.65
2019-01-20T02:43:10.991Z,19.92
2019-01-20T02:45:38.858Z,19.23
2019-01-20T02:48:06.482Z,21.17
2019-01-20T02:50:34.386Z,18.52
2019-01-20T02:53:02.008Z,19.57
2019-01-20T02:55:29.813Z,18.52
2019-01-20T02:57:57.344Z,16.95
2019-01-20T03:00:24.946Z,17.60
2019-01-20T03:02:52.762Z,19.05
2019-01-20T03:05:21.666Z,17.52
2019-01-20T03:07:49.574Z,19.37
2019-01-20T03:10:17.318Z,18.12
2019-01-20T03:12:45.091Z,17.87
2019-01-20T03:15:12.980Z,20.00
2019-01-20T03:17:41.123Z,18.45
2019-01-20T03:20:11.531Z,17.48
2019-01-20T03:22:39.734Z,17.05
2019-01-20T03:25:09.316Z,19.62
2019-01-20T03:27:37.194Z,21.07
2019-01-20T03:30:07.760Z,21.65
2019-01-20T03:32:35.671Z,19.48
2019-01-20T03:35:03.697Z,19.90
2019-01-20T03:37:31.585Z,21.75
2019-01-20T03:39:59.434Z,17.75
2019-01-20T03:42:27.079Z,19.87
2019-01-20T03:44:54.995Z,19.07
2019-01-20T03:47:22.754Z,20.08
2019-01-20T03:49:50.522Z,19.67
2019-01-20T03:52:18.320Z,19.30
2019-01-20T03:54:45.882Z,19.12
2019-01-20T03:57:14.011Z,21.17
2019-01-20T03:59:42.155Z,19.50
2019-01-20T04:02:09.670Z,20.15
2019-01-20T04:04:37.179Z,21.50
2019-01-20T04:07:04.738Z,19.75
2019-01-20T04:09:32.211Z,18.70
2019-01-20T04:12:00.007Z,20.48
2019-01-20T04:14:27.487Z,19.42
2019-01-20T04:16:55.403Z,22.25
2019-01-20T04:19:22.934Z,21.50
2019-01-20T04:21:50.761Z,23.00
2019-01-20T04:24:18.255Z,23.40
2019-01-20T04:26:46.058Z,20.05
2019-01-20T04:29:13.910Z,22.30
2019-01-20T04:31:41.349Z,22.73
2019-01-20T04:34:09.496Z,19.87
2019-01-20T04:36:37.287Z,20.15
2019-01-20T04:39:06.447Z,19.60
2019-01-20T04:41:34.297Z,19.23
2019-01-20T04:44:01.879Z,18.12
2019-01-20T04:46:30.072Z,19.82
2019-01-20T04:48:58.166Z,21.55
2019-01-20T04:51:25.687Z,22.58
2019-01-20T04:53:53.442Z,20.68
2019-01-20T04:56:21.035Z,20.52
2019-01-20T04:58:48.510Z,21.20
2019-01-20T05:01:15.954Z,19.80
2019-01-20T05:03:43.743Z,21.05
2019-01-20T05:06:11.317Z,21.57
2019-01-20T05:08:38.935Z,19.43
2019-01-20T05:11:06.755Z,17.12
2019-01-20T05:13:34.573Z,17.57
2019-01-20T05:16:02.383Z,18.27
2019-01-20T05:18:30.024Z,16.07
2019-01-20T05:20:57.850Z,18.37
2019-01-20T05:23:25.698Z,16.35
2019-01-20T05:25:53.474Z,18.77
2019-01-20T05:28:21.735Z,17.77
2019-01-20T05:30:49.290Z,17.05
2019-01-20T05:33:17.086Z,17.17
2019-01-20T05:35:44.929Z,20.23
2019-01-20T05:38:12.784Z,18.60
2019-01-20T05:40:41.064Z,17.92
2019-01-20T05:43:08.636Z,17.52
2019-01-20T05:45:36.505Z,17.15
2019-01-20T05:48:06.845Z,16.62
2019-01-20T05:50:34.729Z,16.70
2019-01-20T05:53:03.478Z,17.90
2019-01-20T05:55:30.998Z,17.57
2019-01-20T05:57:58.517Z,18.67
2019-01-20T06:00:27.842Z,17.70
2019-01-20T06:02:55.305Z,18.52
2019-01-20T06:05:22.921Z,19.48
2019-01-20T06:07:50.809Z,17.80
2019-01-20T06:10:18.589Z,17.42
2019-01-20T06:12:53.609Z,20.10
2019-01-20T06:15:16.698Z,16.95
2019-01-20T06:17:44.655Z,19.15
2019-01-20T06:20:12.564Z,18.90
2019-01-20T06:22:40.570Z,17.55
2019-01-20T06:25:08.225Z,16.97
2019-01-20T06:27:35.678Z,20.32
2019-01-20T06:30:05.749Z,21.33
2019-01-20T06:32:33.320Z,18.80
2019-01-20T06:35:01.599Z,17.65
2019-01-20T06:37:29.451Z,19.95
2019-01-20T06:39:57.570Z,19.17
2019-01-20T06:42:25.834Z,20.23
2019-01-20T06:44:54.101Z,17.80
2019-01-20T06:47:21.950Z,16.27
2019-01-20T06:49:49.730Z,15.10
2019-01-20T06:52:17.572Z,15.95
2019-01-20T06:54:45.811Z,16.85
2019-01-20T06:57:13.562Z,16.07
2019-01-20T06:59:41.767Z,17.42
2019-01-20T07:02:09.522Z,17.40
2019-01-20T07:04:37.274Z,17.77
2019-01-20T07:07:04.781Z,15.58
2019-01-20T07:09:32.254Z,15.50
2019-01-20T07:11:59.731Z,16.55
2019-01-20T07:14:27.262Z,18.98
2019-01-20T07:16:54.775Z,19.75
2019-01-20T07:19:22.318Z,20.17
2019-01-20T07:21:50.049Z,17.92
2019-01-20T07:24:18.182Z,19.40
2019-01-20T07:26:46.063Z,17.95
2019-01-20T07:29:13.848Z,16.60
2019-01-20T07:31:42.334Z,16.62
2019-01-20T07:34:09.801Z,18.45
2019-01-20T07:36:38.054Z,18.42
2019-01-20T07:39:07.339Z,19.25
2019-01-20T07:41:34.903Z,16.93
2019-01-20T07:44:02.448Z,18.00
2019-01-20T07:46:30.553Z,15.23
2019-01-20T07:48:58.479Z,18.25
2019-01-20T07:51:26.634Z,17.95
2019-01-20T07:53:54.479Z,17.20
2019-01-20T07:56:21.959Z,17.50
2019-01-20T07:58:49.589Z,18.07
2019-01-20T08:01:17.206Z,17.37
2019-01-20T08:03:44.962Z,19.35
2019-01-20T08:06:12.999Z,20.60
2019-01-20T08:08:40.790Z,19.80
2019-01-20T08:11:08.346Z,21.82
2019-01-20T08:13:35.831Z,20.65
2019-01-20T08:16:03.714Z,19.25
2019-01-20T08:18:31.254Z,18.17
2019-01-20T08:20:59.275Z,17.40
2019-01-20T08:23:26.809Z,16.57
2019-01-20T08:25:54.386Z,17.63
2019-01-20T08:28:21.895Z,23.60
2019-01-20T08:30:49.674Z,38.13
2019-01-20T08:33:17.247Z,22.37
2019-01-20T08:35:45.162Z,19.77
2019-01-20T08:38:12.700Z,19.80
2019-01-20T08:40:40.623Z,19.27
2019-01-20T08:43:08.119Z,18.77
2019-01-20T08:46:09.622Z,17.93
2019-01-20T08:48:37.490Z,20.43
2019-01-20T08:51:05.527Z,32.30
2019-01-20T08:53:33.449Z,31.20
2019-01-20T08:56:01.643Z,20.60
2019-01-20T08:58:29.646Z,20.27
2019-01-20T09:00:57.254Z,19.20
2019-01-20T09:03:25.073Z,19.50
2019-01-20T09:05:53.194Z,18.63
2019-01-20T09:08:20.991Z,19.80
2019-01-20T09:10:48.540Z,19.60
2019-01-20T09:13:16.447Z,21.60
2019-01-20T09:15:44.510Z,22.20
2019-01-20T09:18:12.060Z,21.43
2019-01-20T09:20:39.719Z,22.90
2019-01-20T09:23:07.858Z,23.63
2019-01-20T09:25:35.410Z,25.60
2019-01-20T09:28:03.690Z,21.80
2019-01-20T09:30:31.619Z,21.63
2019-01-20T09:32:59.502Z,23.20
2019-01-20T09:35:27.417Z,23.10
2019-01-20T09:37:55.070Z,26.27
2019-01-20T09:40:22.743Z,21.03
2019-01-20T09:42:50.552Z,24.67
2019-01-20T09:45:25.070Z,19.03
2019-01-20T09:47:52.714Z,21.13
2019-01-20T09:50:20.230Z,26.70
2019-01-20T09:52:48.202Z,26.57
2019-01-20T09:55:15.871Z,25.40
2019-01-20T09:57:44.102Z,24.77
2019-01-20T10:00:31.334Z,24.13
2019-01-20T10:02:59.968Z,23.80
2019-01-20T10:05:27.681Z,21.87
2019-01-20T10:07:57.531Z,22.20
2019-01-20T10:10:25.431Z,21.67
2019-01-20T10:12:53.013Z,21.50
2019-01-20T10:15:21.231Z,23.57
2019-01-20T10:17:49.081Z,21.00
2019-01-20T10:20:24.524Z,23.90
2019-01-20T10:22:52.144Z,26.90
2019-01-20T10:25:19.887Z,25.77
2019-01-20T10:27:47.742Z,26.90
2019-01-20T10:30:23.862Z,23.00
2019-01-20T10:32:51.439Z,23.10
2019-01-20T10:35:21.255Z,21.70
2019-01-20T10:37:49.135Z,22.40
2019-01-20T10:40:16.723Z,22.60
2019-01-20T10:42:44.680Z,22.63
2019-01-20T10:45:12.816Z,22.03
2019-01-20T10:47:40.723Z,23.10
2019-01-20T10:50:09.238Z,22.17
2019-01-20T10:52:37.678Z,22.57
2019-01-20T10:55:07.043Z,23.60
2019-01-20T10:57:35.024Z,22.60
2019-01-20T11:00:05.421Z,22.97
2019-01-20T11:02:33.468Z,21.17
2019-01-20T11:05:01.635Z,22.60
2019-01-20T11:07:29.941Z,20.07
2019-01-20T11:10:00.682Z,22.70
2019-01-20T11:12:30.615Z,24.00
2019-01-20T11:15:00.901Z,21.80
2019-01-20T11:17:30.853Z,21.13
2019-01-20T11:20:01.007Z,20.00
2019-01-20T11:22:31.291Z,23.40
2019-01-20T11:25:00.979Z,21.73
2019-01-20T11:27:32.810Z,25.93
2019-01-20T11:30:02.334Z,23.30
2019-01-20T11:32:32.693Z,22.00
2019-01-20T11:35:05.846Z,23.13
2019-01-20T11:37:36.505Z,21.43
2019-01-20T11:40:07.759Z,20.10
2019-01-20T11:42:38.630Z,20.93
2019-01-20T11:45:11.814Z,20.73
2019-01-20T11:47:41.965Z,22.70
2019-01-20T11:50:11.762Z,22.53
2019-01-20T11:52:41.813Z,22.13
2019-01-20T11:55:10.179Z,23.20
2019-01-20T11:57:37.712Z,23.87
2019-01-20T12:00:17.150Z,21.53
2019-01-20T12:02:45.294Z,21.97
2019-01-20T12:05:13.230Z,25.93
2019-01-20T12:07:40.787Z,24.40
2019-01-20T12:10:08.935Z,22.57
2019-01-20T12:12:37.531Z,22.90
2019-01-20T12:15:06.817Z,22.43
2019-01-20T12:17:34.476Z,22.93
2019-01-20T12:20:02.840Z,24.23
2019-01-20T12:22:30.806Z,36.37
2019-01-20T12:24:58.280Z,26.03
2019-01-20T12:27:26.223Z,21.17
2019-01-20T12:29:53.819Z,23.00
2019-01-20T12:32:21.350Z,21.23
2019-01-20T12:34:49.175Z,21.17
2019-01-20T12:37:16.814Z,21.80
2019-01-20T12:39:44.918Z,24.73
2019-01-20T12:42:12.381Z,22.90
2019-01-20T12:44:40.210Z,23.33
2019-01-20T12:47:07.670Z,21.93
2019-01-20T12:49:35.663Z,23.90
2019-01-20T12:52:03.318Z,21.33
2019-01-20T12:54:31.243Z,23.33
2019-01-20T12:56:58.896Z,21.97
2019-01-20T12:59:26.534Z,23.17
2019-01-20T13:01:54.384Z,23.30
2019-01-20T13:04:21.872Z,22.83
2019-01-20T13:06:49.893Z,22.20
2019-01-20T13:09:17.552Z,21.40
2019-01-20T13:11:45.088Z,21.50
2019-01-20T13:14:13.569Z,22.33
2019-01-20T13:16:41.161Z,21.37
2019-01-20T13:19:09.077Z,25.10
2019-01-20T13:21:37.002Z,21.60
2019-01-20T13:24:05.186Z,24.50
2019-01-20T13:26:33.198Z,42.33
2019-01-20T13:29:01.406Z,22.67
2019-01-20T13:31:29.291Z,23.23
2019-01-20T13:33:57.205Z,24.63
2019-01-20T13:36:25.246Z,22.60
2019-01-20T13:38:53.006Z,21.57
2019-01-20T13:41:27.907Z,22.90
2019-01-20T13:43:56.426Z,22.50
2019-01-20T13:46:23.998Z,23.97
2019-01-20T13:48:51.858Z,22.00
2019-01-20T13:51:19.620Z,22.80
2019-01-20T13:53:47.211Z,22.60
2019-01-20T13:56:15.464Z,21.70
2019-01-20T13:58:43.056Z,22.93
2019-01-20T14:01:10.634Z,20.60
2019-01-20T14:03:38.466Z,22.07
2019-01-20T14:06:06.698Z,24.90
2019-01-20T14:08:44.044Z,24.80
2019-01-20T14:11:10.810Z,25.87
2019-01-20T14:13:40.755Z,25.20
2019-01-20T14:16:12.946Z,24.70
2019-01-20T14:18:45.312Z,26.57
2019-01-20T14:21:14.823Z,25.83
2019-01-20T14:23:45.066Z,24.13
2019-01-20T14:26:14.906Z,23.47
2019-01-20T14:28:45.515Z,24.83
2019-01-20T14:31:15.431Z,26.20
2019-01-20T14:33:45.461Z,24.73
2019-01-20T14:36:16.553Z,25.30
2019-01-20T14:38:46.289Z,25.60
2019-01-20T14:41:16.118Z,23.50
2019-01-20T14:43:45.768Z,24.23
2019-01-20T14:46:15.300Z,24.03
2019-01-20T14:48:44.412Z,24.63
2019-01-20T14:51:13.435Z,25.08
2019-01-20T14:53:41.091Z,25.30
2019-01-20T14:56:09.351Z,24.75
2019-01-20T14:58:36.879Z,27.58
2019-01-20T15:01:06.148Z,26.73
2019-01-20T15:03:33.797Z,30.23
2019-01-20T15:06:01.727Z,27.82
2019-01-20T15:08:29.659Z,29.45
2019-01-20T15:10:57.290Z,29.90
2019-01-20T15:13:25.473Z,29.48
2019-01-20T15:15:53.206Z,30.20
2019-01-20T15:18:21.119Z,30.92
2019-01-20T15:20:48.809Z,29.50
2019-01-20T15:23:16.734Z,31.35
2019-01-20T15:25:44.951Z,32.20
2019-01-20T15:28:12.928Z,33.88
2019-01-20T15:30:40.600Z,35.33
2019-01-20T15:33:08.583Z,34.90
2019-01-20T15:35:36.469Z,35.30
2019-01-20T15:38:04.146Z,36.23
2019-01-20T15:40:31.708Z,35.58
2019-01-20T15:42:59.594Z,36.35
2019-01-20T15:45:27.378Z,30.00
2019-01-20T15:47:55.945Z,28.75
2019-01-20T15:50:25.715Z,30.37
2019-01-20T15:52:53.266Z,29.60
2019-01-20T15:55:20.808Z,27.25
2019-01-20T15:57:48.380Z,29.72
2019-01-20T16:00:26.353Z,30.20
2019-01-20T16:02:53.877Z,31.55
2019-01-20T16:05:22.800Z,32.10
2019-01-20T16:07:50.302Z,36.08
2019-01-20T16:10:17.958Z,32.20
2019-01-20T16:12:45.781Z,35.68
2019-01-20T16:15:24.335Z,38.10
2019-01-20T16:17:51.511Z,41.30
2019-01-20T16:20:19.719Z,47.67
2019-01-20T16:22:47.649Z,45.00
2019-01-20T16:25:20.470Z,46.68
2019-01-20T16:27:48.318Z,41.40
2019-01-20T16:30:18.663Z,42.08
2019-01-20T16:32:46.327Z,42.23
2019-01-20T16:35:14.473Z,36.25
2019-01-20T16:37:42.241Z,36.70
2019-01-20T16:40:12.433Z,33.50
2019-01-20T16:42:48.518Z,34.48
2019-01-20T16:45:18.050Z,35.25
2019-01-20T16:47:45.822Z,34.95
2019-01-20T16:50:16.598Z,31.30
2019-01-20T16:52:44.179Z,32.63
2019-01-20T16:55:13.075Z,33.33
2019-01-20T16:57:40.543Z,32.53
2019-01-20T17:00:12.574Z,28.32
2019-01-20T17:02:40.362Z,27.45
2019-01-20T17:05:08.642Z,30.10
2019-01-20T17:07:36.574Z,27.10
2019-01-20T17:10:07.347Z,26.40
2019-01-20T17:12:34.904Z,28.20
2019-01-20T17:15:02.584Z,30.32
2019-01-20T17:17:31.266Z,29.07
2019-01-20T17:19:59.245Z,25.60
2019-01-20T17:22:26.859Z,27.07
2019-01-20T17:24:54.544Z,31.50
2019-01-20T17:27:22.228Z,32.13
2019-01-20T17:29:50.146Z,31.65
2019-01-20T17:32:19.755Z,28.50
2019-01-20T17:34:51.078Z,30.52
2019-01-20T17:37:19.160Z,29.40
2019-01-20T17:39:46.734Z,29.90
2019-01-20T17:42:14.366Z,30.75
2019-01-20T17:44:41.859Z,30.30
2019-01-20T17:47:09.795Z,31.82
2019-01-20T17:49:37.655Z,29.37
2019-01-20T17:52:06.186Z,27.60
2019-01-20T17:54:34.326Z,28.75
2019-01-20T17:57:02.139Z,29.02
2019-01-20T17:59:30.226Z,27.27
2019-01-20T18:01:59.755Z,27.82
2019-01-20T18:04:27.326Z,28.47
2019-01-20T18:06:54.919Z,28.42
2019-01-20T18:09:22.804Z,26.25
2019-01-20T18:11:50.399Z,26.57
2019-01-20T18:14:17.944Z,27.58
2019-01-20T18:16:46.030Z,28.60
2019-01-20T18:19:13.550Z,27.58
2019-01-20T18:21:41.373Z,27.85
2019-01-20T18:24:09.271Z,29.75
2019-01-20T18:26:37.076Z,28.35
2019-01-20T18:29:04.519Z,29.55
2019-01-20T18:31:32.405Z,27.87
2019-01-20T18:34:00.323Z,30.95
2019-01-20T18:36:28.190Z,31.15
2019-01-20T18:38:56.043Z,28.98
2019-01-20T18:41:26.411Z,29.92
2019-01-20T18:43:54.562Z,29.23
2019-01-20T18:46:22.806Z,27.75
2019-01-20T18:48:50.264Z,27.55
2019-01-20T18:51:18.089Z,25.55
2019-01-20T18:53:46.157Z,29.87
2019-01-20T18:56:13.746Z,28.32
2019-01-20T18:58:41.518Z,28.87
2019-01-20T19:01:11.314Z,31.48
2019-01-20T19:03:38.879Z,24.10
2019-01-20T19:06:07.351Z,28.47
2019-01-20T19:08:35.180Z,28.40
2019-01-20T19:11:03.266Z,25.35
2019-01-20T19:13:30.886Z,28.55
2019-01-20T19:15:58.490Z,32.93
2019-01-20T19:18:26.454Z,28.90
2019-01-20T19:20:53.949Z,25.65
2019-01-20T19:23:21.888Z,23.90
2019-01-20T19:25:50.244Z,29.12
2019-01-20T19:28:18.292Z,33.70
2019-01-20T19:30:45.927Z,36.93
2019-01-20T19:33:13.849Z,39.05
2019-01-20T19:35:41.463Z,26.35
2019-01-20T19:38:09.551Z,35.60
2019-01-20T19:40:37.668Z,33.25
2019-01-20T19:43:05.317Z,44.65
2019-01-20T19:45:32.991Z,36.68
2019-01-20T19:48:00.563Z,25.80
2019-01-20T19:50:28.341Z,32.67
2019-01-20T19:52:55.989Z,29.55
2019-01-20T19:55:28.683Z,21.60
2019-01-20T19:57:56.635Z,26.12
2019-01-20T20:00:25.526Z,26.40
2019-01-20T20:02:53.194Z,20.10
2019-01-20T20:05:20.976Z,22.85
2019-01-20T20:07:49.198Z,20.02
2019-01-20T20:10:18.768Z,20.55
2019-01-20T20:12:46.708Z,20.90
2019-01-20T20:15:17.055Z,21.37
2019-01-20T20:17:44.930Z,18.95
2019-01-20T20:20:13.236Z,21.23
2019-01-20T20:22:40.752Z,19.60
2019-01-20T20:25:08.757Z,19.90
2019-01-20T20:27:36.447Z,19.95
2019-01-20T20:30:07.806Z,18.92
2019-01-20T20:32:35.519Z,22.20
2019-01-20T20:35:03.883Z,19.45
2019-01-20T20:37:31.655Z,20.10
2019-01-20T20:39:59.453Z,23.47
2019-01-20T20:42:27.555Z,23.02
2019-01-20T20:44:55.091Z,21.75
2019-01-20T20:47:22.789Z,21.70
2019-01-20T20:49:50.378Z,19.90
2019-01-20T20:52:17.931Z,20.92
2019-01-20T20:54:45.503Z,20.88
2019-01-20T20:57:13.032Z,21.73
2019-01-20T20:59:40.873Z,24.57
2019-01-20T21:02:08.648Z,21.60
2019-01-20T21:04:36.163Z,22.32
2019-01-20T21:07:03.809Z,22.98
2019-01-20T21:09:31.295Z,19.75
2019-01-20T21:11:58.831Z,20.10
2019-01-20T21:14:26.921Z,22.00
2019-01-20T21:16:54.634Z,22.87
2019-01-20T21:19:22.483Z,20.92
2019-01-20T21:21:50.451Z,23.30
2019-01-20T21:24:18.114Z,21.15
2019-01-20T21:26:45.714Z,24.40
2019-01-20T21:29:13.334Z,21.57
2019-01-20T21:31:40.958Z,20.05
2019-01-20T21:34:08.601Z,20.77
2019-01-20T21:36:36.698Z,20.12
2019-01-20T21:39:06.770Z,20.88
2019-01-20T21:41:34.422Z,22.35
2019-01-20T21:44:02.238Z,20.97
2019-01-20T21:46:30.214Z,22.35
2019-01-20T21:48:58.354Z,20.75
2019-01-20T21:51:25.965Z,22.20
2019-01-20T21:53:53.451Z,22.52
2019-01-20T21:56:21.100Z,22.77
2019-01-20T21:58:48.730Z,24.63
2019-01-20T22:01:16.276Z,23.07
2019-01-20T22:03:44.570Z,22.48
2019-01-20T22:06:12.209Z,23.38
2019-01-20T22:08:40.095Z,23.55
2019-01-20T22:11:07.554Z,22.13
2019-01-20T22:13:35.383Z,23.57
2019-01-20T22:16:03.558Z,23.07
2019-01-20T22:18:31.411Z,22.62
2019-01-20T22:20:59.274Z,22.17
2019-01-20T22:23:27.072Z,22.50
2019-01-20T22:25:56.816Z,23.05
2019-01-20T22:28:24.792Z,22.00
2019-01-20T22:30:52.494Z,20.43
2019-01-20T22:33:20.078Z,21.87
2019-01-20T22:35:47.750Z,21.73
2019-01-20T22:38:15.536Z,23.80
2019-01-20T22:40:43.318Z,22.62
2019-01-20T22:43:10.998Z,23.22
2019-01-20T22:45:39.193Z,20.40
2019-01-20T22:48:10.209Z,21.23
2019-01-20T22:50:38.092Z,21.62
2019-01-20T22:53:05.602Z,19.02
2019-01-20T22:55:33.159Z,22.85
2019-01-20T22:58:00.728Z,21.70
2019-01-20T23:00:48.286Z,22.70
2019-01-20T23:03:16.039Z,21.00
2019-01-20T23:05:43.578Z,26.20
2019-01-20T23:08:11.111Z,26.02
2019-01-20T23:10:38.748Z,23.47
2019-01-20T23:13:06.386Z,23.18
2019-01-20T23:15:33.918Z,21.33
2019-01-20T23:18:01.951Z,23.42
2019-01-20T23:20:29.884Z,20.68
2019-01-20T23:22:57.440Z,21.52
2019-01-20T23:25:24.923Z,19.92
2019-01-20T23:27:53.083Z,22.73
2019-01-20T23:30:20.976Z,22.32
2019-01-20T23:32:49.041Z,20.17
2019-01-20T23:35:16.699Z,21.93
2019-01-20T23:37:44.203Z,23.87
2019-01-20T23:40:12.619Z,24.77
2019-01-20T23:42:40.383Z,25.37
2019-01-20T23:45:08.695Z,23.15
2019-01-20T23:47:36.427Z,24.02
2019-01-20T23:50:05.251Z,28.40
2019-01-20T23:52:32.854Z,26.40
2019-01-20T23:55:00.477Z,25.15
2019-01-20T23:57:28.322Z,25.23
2019-01-20T23:59:55.903Z,24.72
